Time;durP1;ratioP1;P1;durP2;ratioP2;P2;SDS_P1;SDS_P2;PMS_P1;PMS_P2;Temp;Humidity;BMP_temperature;BMP_pressure;BME280_temperature;BME280_humidity;BME280_pressure;Samples;Min_cycle;Max_cycle;Signal;HPM_P1;HPM_P2
2023/07/29 00:02:44;;;;;;;9.52;6.78;;;;;;;15.88;100.00;100530.69;10476988;28;20085;-77
2023/07/29 00:07:44;;;;;;;7.25;5.18;;;;;;;15.82;100.00;100527.88;10472198;28;20048;-77
2023/07/29 00:12:45;;;;;;;9.50;6.07;;;;;;;15.74;100.00;100532.97;10503070;28;20044;-77
2023/07/29 00:17:45;;;;;;;15.40;8.82;;;;;;;15.82;100.00;100523.47;10489755;28;20519;-76
2023/07/29 00:22:46;;;;;;;7.57;5.65;;;;;;;15.91;100.00;100512.28;10496036;28;20048;-76
2023/07/29 00:27:46;;;;;;;13.88;6.72;;;;;;;15.96;100.00;100518.53;10493617;28;20579;-77
2023/07/29 00:32:47;;;;;;;11.70;7.32;;;;;;;16.01;100.00;100500.13;10532685;27;20037;-76
2023/07/29 00:37:47;;;;;;;13.98;7.18;;;;;;;16.07;100.00;100492.34;10508154;28;20040;-77
2023/07/29 00:42:49;;;;;;;14.20;6.60;;;;;;;16.03;100.00;100498.41;10490178;28;20585;-76
2023/07/29 00:47:49;;;;;;;10.10;6.45;;;;;;;15.98;100.00;100487.78;10483704;28;20041;-77
2023/07/29 00:52:50;;;;;;;16.15;8.00;;;;;;;16.06;100.00;100500.25;10501225;28;20452;-76
2023/07/29 00:57:54;;;;;;;11.85;7.70;;;;;;;16.12;100.00;100505.63;10483644;28;20064;-77
2023/07/29 01:02:54;;;;;;;23.40;9.88;;;;;;;16.24;100.00;100505.88;10499633;28;20626;-78
2023/07/29 01:07:58;;;;;;;20.95;11.27;;;;;;;16.26;100.00;100501.50;10499801;28;20182;-77
2023/07/29 01:13:13;;;;;;;17.38;11.70;;;;;;;16.39;100.00;100484.13;10483080;28;20043;-77
2023/07/29 01:18:18;;;;;;;16.95;10.57;;;;;;;16.39;100.00;100477.97;10503282;28;20048;-77
2023/07/29 01:23:34;;;;;;;21.83;11.75;;;;;;;16.45;100.00;100472.78;10468170;28;20033;-76
2023/07/29 01:28:35;;;;;;;18.27;12.25;;;;;;;16.48;100.00;100466.66;10440634;28;20033;-76
2023/07/29 01:33:40;;;;;;;19.67;12.65;;;;;;;16.51;100.00;100467.59;10441545;28;20542;-77
2023/07/29 01:38:41;;;;;;;17.75;10.35;;;;;;;16.56;100.00;100468.56;10439840;28;20037;-76
2023/07/29 01:43:44;;;;;;;20.00;10.48;;;;;;;16.54;100.00;100474.66;10423317;28;20043;-77
2023/07/29 01:48:45;;;;;;;18.27;12.23;;;;;;;16.58;100.00;100465.94;10478601;28;20036;-77
2023/07/29 01:53:45;;;;;;;20.48;12.38;;;;;;;16.65;100.00;100459.03;10477111;28;20064;-77
2023/07/29 01:58:46;;;;;;;15.13;12.73;;;;;;;16.70;100.00;100458.22;10499498;28;20036;-77
2023/07/29 02:03:46;;;;;;;18.90;11.50;;;;;;;16.73;100.00;100479.41;10496720;28;20056;-77
2023/07/29 02:08:47;;;;;;;16.95;11.00;;;;;;;16.73;100.00;100474.13;10505643;28;20106;-77
2023/07/29 02:13:47;;;;;;;15.98;11.73;;;;;;;16.75;100.00;100463.59;10488724;28;20063;-77
2023/07/29 02:18:49;;;;;;;23.27;12.70;;;;;;;16.75;100.00;100471.50;10498175;28;20047;-77
2023/07/29 02:23:50;;;;;;;14.02;10.60;;;;;;;16.73;100.00;100467.97;10479419;28;20389;-77
2023/07/29 02:28:50;;;;;;;14.40;10.57;;;;;;;16.70;100.00;100458.22;10478341;28;20032;-77
2023/07/29 02:33:51;;;;;;;12.98;10.73;;;;;;;16.65;100.00;100472.22;10470915;28;20039;-77
2023/07/29 02:38:52;;;;;;;20.98;11.00;;;;;;;16.52;100.00;100453.53;10462158;28;20040;-76
2023/07/29 02:43:52;;;;;;;12.52;9.75;;;;;;;16.41;100.00;100449.81;10498637;28;20036;-76
2023/07/29 02:48:53;;;;;;;14.40;10.60;;;;;;;16.28;100.00;100459.25;10500739;28;20079;-77
2023/07/29 02:53:53;;;;;;;14.15;10.98;;;;;;;16.18;100.00;100459.97;10495880;28;20041;-76
2023/07/29 02:58:54;;;;;;;12.95;8.50;;;;;;;16.05;100.00;100445.66;10497038;28;20483;-76
2023/07/29 03:03:54;;;;;;;13.38;9.98;;;;;;;15.93;100.00;100435.75;10502151;28;20059;-77
2023/07/29 03:08:55;;;;;;;12.65;9.00;;;;;;;15.82;100.00;100435.53;10508622;28;20130;-76
2023/07/29 03:13:56;;;;;;;12.77;9.57;;;;;;;15.74;100.00;100443.28;10486705;28;20503;-76
2023/07/29 03:18:57;;;;;;;12.60;8.60;;;;;;;15.63;100.00;100453.63;10505466;28;20117;-76
2023/07/29 03:23:58;;;;;;;14.80;8.20;;;;;;;15.47;100.00;100436.59;10487682;28;20095;-76
2023/07/29 03:28:58;;;;;;;14.95;7.70;;;;;;;15.35;100.00;100433.69;10511453;28;20483;-77
2023/07/29 03:33:59;;;;;;;11.35;6.63;;;;;;;15.21;100.00;100434.28;10495632;28;20121;-76
2023/07/29 03:39:00;;;;;;;12.57;7.07;;;;;;;15.11;100.00;100442.84;10510517;28;20036;-76
2023/07/29 03:44:00;;;;;;;14.20;7.20;;;;;;;15.04;100.00;100457.66;10503370;28;20178;-76
2023/07/29 03:49:01;;;;;;;17.83;7.00;;;;;;;14.97;100.00;100453.09;10504716;28;20529;-76
2023/07/29 03:54:02;;;;;;;11.82;7.72;;;;;;;14.87;100.00;100453.75;10516318;28;20159;-76
2023/07/29 03:59:03;;;;;;;11.68;6.82;;;;;;;14.80;100.00;100456.22;10504603;28;20032;-76
2023/07/29 04:04:04;;;;;;;11.50;6.13;;;;;;;14.83;100.00;100468.56;10475259;28;20080;-77
2023/07/29 04:09:04;;;;;;;20.33;8.60;;;;;;;14.80;100.00;100468.50;10491340;28;20053;-77
2023/07/29 04:14:05;;;;;;;13.68;7.28;;;;;;;14.74;100.00;100448.19;10489880;28;20037;-76
2023/07/29 04:19:05;;;;;;;11.48;6.35;;;;;;;14.68;100.00;100429.56;10511872;28;20040;-77
2023/07/29 04:24:06;;;;;;;17.20;8.10;;;;;;;14.66;100.00;100426.88;10494063;28;20454;-77
2023/07/29 04:29:06;;;;;;;26.13;7.55;;;;;;;14.66;100.00;100432.16;10494435;28;20645;-76
2023/07/29 04:34:07;;;;;;;14.00;6.85;;;;;;;14.66;100.00;100431.28;10503772;28;20039;-76
2023/07/29 04:39:07;;;;;;;12.73;6.47;;;;;;;14.63;100.00;100439.97;10509835;28;20130;-77
2023/07/29 04:44:08;;;;;;;15.50;7.55;;;;;;;14.59;100.00;100460.94;10491947;28;20036;-77
2023/07/29 04:49:08;;;;;;;14.48;7.65;;;;;;;14.58;100.00;100469.69;10494482;28;20039;-76
2023/07/29 04:54:09;;;;;;;13.45;7.20;;;;;;;14.64;100.00;100483.88;10485577;28;20104;-76
2023/07/29 04:59:12;;;;;;;13.43;6.43;;;;;;;14.72;100.00;100480.59;10534180;27;20093;-76
2023/07/29 05:04:13;;;;;;;16.70;8.40;;;;;;;14.75;100.00;100484.19;10496697;28;20047;-76
2023/07/29 05:09:15;;;;;;;11.07;7.50;;;;;;;14.85;100.00;100481.78;10491618;28;20140;-76
2023/07/29 05:14:16;;;;;;;16.08;7.55;;;;;;;14.82;100.00;100501.03;10465704;28;20040;-76
2023/07/29 05:19:17;;;;;;;15.47;8.67;;;;;;;14.85;100.00;100500.25;10443687;28;20052;-76
2023/07/29 05:24:17;;;;;;;15.93;6.18;;;;;;;14.88;100.00;100503.81;10451214;28;20461;-77
2023/07/29 05:29:18;;;;;;;16.40;8.65;;;;;;;14.85;100.00;100497.59;10439192;28;20044;-77
2023/07/29 05:34:19;;;;;;;11.10;5.90;;;;;;;14.90;100.00;100517.03;10426774;28;20045;-77
2023/07/29 05:39:19;;;;;;;8.80;5.55;;;;;;;14.94;100.00;100519.78;10437687;28;20041;-79
2023/07/29 05:44:20;;;;;;;11.70;5.82;;;;;;;14.94;100.00;100519.78;10434233;28;20036;-77
2023/07/29 05:49:20;;;;;;;7.53;4.20;;;;;;;14.89;100.00;100510.88;10438027;28;20390;-77
2023/07/29 05:54:21;;;;;;;5.57;3.65;;;;;;;14.93;100.00;100491.66;10415999;28;20037;-79
2023/07/29 05:59:21;;;;;;;7.07;3.90;;;;;;;15.19;100.00;100503.66;10437254;28;20060;-79
2023/07/29 06:04:22;;;;;;;11.13;3.63;;;;;;;15.29;100.00;100495.09;10438633;28;20033;-79
2023/07/29 06:09:23;;;;;;;12.05;3.40;;;;;;;15.88;100.00;100493.75;10436518;28;20041;-79
2023/07/29 06:14:23;;;;;;;6.43;2.72;;;;;;;17.18;100.00;100489.78;10437839;28;20044;-78
2023/07/29 06:19:24;;;;;;;6.63;2.88;;;;;;;17.16;100.00;100486.25;10438680;28;20048;-78
2023/07/29 06:24:24;;;;;;;11.63;6.63;;;;;;;16.93;100.00;100470.03;10437806;28;20033;-79
2023/07/29 06:29:25;;;;;;;7.40;4.05;;;;;;;16.96;100.00;100470.06;10438012;28;20099;-79
2023/07/29 06:34:25;;;;;;;9.68;3.97;;;;;;;17.54;100.00;100474.41;10453126;28;20068;-81
2023/07/29 06:39:26;;;;;;;8.93;2.35;;;;;;;19.35;100.00;100449.56;10439790;28;20135;-81
2023/07/29 06:44:27;;;;;;;6.07;2.73;;;;;;;18.98;100.00;100446.69;10448934;28;20044;-78
2023/07/29 06:49:27;;;;;;;3.07;1.97;;;;;;;19.42;100.00;100462.84;10486247;28;20503;-78
2023/07/29 06:54:28;;;;;;;3.80;1.37;;;;;;;21.46;100.00;100455.91;10488436;28;20457;-77
2023/07/29 06:59:28;;;;;;;3.70;1.70;;;;;;;22.95;100.00;100466.53;10471320;28;20143;-78
2023/07/29 07:04:29;;;;;;;3.33;1.87;;;;;;;24.07;100.00;100465.22;10474172;28;20074;-79
2023/07/29 07:09:29;;;;;;;4.32;1.55;;;;;;;24.82;100.00;100470.25;10451825;28;20037;-78
2023/07/29 07:14:30;;;;;;;3.83;1.43;;;;;;;24.95;100.00;100505.75;10449517;28;20041;-78
2023/07/29 07:19:30;;;;;;;3.20;1.03;;;;;;;25.01;100.00;100508.31;10455922;28;20407;-78
2023/07/29 07:24:31;;;;;;;4.10;2.33;;;;;;;24.72;100.00;100519.47;10459630;28;20067;-77
2023/07/29 07:29:32;;;;;;;7.23;3.27;;;;;;;25.03;100.00;100508.25;10453103;28;20040;-78
2023/07/29 07:34:33;;;;;;;8.87;5.30;;;;;;;24.83;100.00;100527.34;10428297;28;20128;-79
2023/07/29 07:39:33;;;;;;;8.68;4.13;;;;;;;24.92;100.00;100537.91;10453038;28;20041;-78
2023/07/29 07:44:34;;;;;;;10.60;4.93;;;;;;;25.69;100.00;100540.94;10429585;28;20032;-77
2023/07/29 07:49:34;;;;;;;3.33;1.73;;;;;;;25.49;100.00;100539.56;10447830;28;20044;-77
2023/07/29 07:54:35;;;;;;;3.70;1.50;;;;;;;25.18;100.00;100545.47;10423505;28;20092;-77
2023/07/29 07:59:35;;;;;;;2.53;1.10;;;;;;;24.30;100.00;100546.88;10436327;28;20029;-77
2023/07/29 08:04:36;;;;;;;2.27;1.20;;;;;;;23.97;100.00;100531.22;10436726;28;20497;-77
2023/07/29 08:09:36;;;;;;;1.70;1.10;;;;;;;23.74;100.00;100518.19;10416259;28;20561;-77
2023/07/29 08:14:37;;;;;;;6.70;2.53;;;;;;;22.68;100.00;100526.31;10444003;28;20033;-77
2023/07/29 08:19:37;;;;;;;3.63;1.53;;;;;;;23.60;100.00;100523.69;10443004;28;20040;-78
2023/07/29 08:24:38;;;;;;;3.40;1.50;;;;;;;24.13;100.00;100533.72;10440225;28;20032;-77
2023/07/29 08:29:39;;;;;;;1.77;1.00;;;;;;;23.00;100.00;100525.16;10443492;28;20072;-77
2023/07/29 08:34:39;;;;;;;1.83;0.97;;;;;;;22.03;100.00;100546.25;10427377;28;20044;-77
2023/07/29 08:39:40;;;;;;;3.47;1.63;;;;;;;21.85;100.00;100541.88;10441663;28;20048;-77
2023/07/29 08:44:41;;;;;;;2.80;1.40;;;;;;;22.44;100.00;100544.25;10442637;28;20163;-77
2023/07/29 08:49:42;;;;;;;2.75;1.10;;;;;;;21.78;100.00;100558.78;10411397;28;20044;-77
2023/07/29 08:54:42;;;;;;;3.93;1.03;;;;;;;21.33;100.00;100549.13;10433754;28;20073;-77
2023/07/29 08:59:43;;;;;;;6.17;1.40;;;;;;;21.90;100.00;100560.53;10449388;28;20041;-76
2023/07/29 09:04:43;;;;;;;1.97;1.13;;;;;;;21.79;100.00;100566.78;10421705;28;20037;-77
2023/07/29 09:09:44;;;;;;;2.80;1.87;;;;;;;21.63;100.00;100557.06;10441940;28;20120;-76
2023/07/29 09:14:44;;;;;;;3.40;1.40;;;;;;;22.62;100.00;100545.94;10441838;28;20091;-77
2023/07/29 09:19:48;;;;;;;10.13;1.97;;;;;;;23.30;100.00;100550.72;10439270;28;20134;-77
2023/07/29 09:24:49;;;;;;;2.03;1.23;;;;;;;25.10;100.00;100541.16;10458988;28;20040;-77
2023/07/29 09:29:49;;;;;;;2.47;1.47;;;;;;;25.76;100.00;100556.00;10440248;28;20045;-77
2023/07/29 09:34:50;;;;;;;2.10;1.60;;;;;;;25.99;100.00;100570.72;10418041;28;20132;-77
2023/07/29 09:39:51;;;;;;;3.17;2.00;;;;;;;25.48;100.00;100556.53;10433782;28;20053;-77
2023/07/29 09:44:53;;;;;;;6.43;1.58;;;;;;;25.42;100.00;100556.63;10422704;28;20053;-78
2023/07/29 09:49:53;;;;;;;3.97;1.35;;;;;;;25.49;100.00;100541.38;10426479;28;20037;-77
2023/07/29 09:54:54;;;;;;;2.37;0.80;;;;;;;25.26;100.00;100545.34;10439299;28;20114;-77
2023/07/29 09:59:55;;;;;;;2.20;1.37;;;;;;;24.76;100.00;100551.53;10450731;28;20573;-77
2023/07/29 10:04:56;;;;;;;3.15;0.80;;;;;;;25.38;100.00;100554.06;10469947;28;20051;-77
2023/07/29 10:09:56;;;;;;;2.00;0.97;;;;;;;24.78;100.00;100560.44;10497666;28;20544;-78
2023/07/29 10:14:59;;;;;;;3.80;1.53;;;;;;;23.94;100.00;100558.00;10483167;28;20037;-77
2023/07/29 10:19:59;;;;;;;2.60;1.55;;;;;;;23.61;100.00;100547.72;10452217;28;20049;-77
2023/07/29 10:25:04;;;;;;;3.07;1.27;;;;;;;24.25;100.00;100556.75;10423203;28;20126;-77
2023/07/29 10:30:05;;;;;;;3.90;1.60;;;;;;;27.36;100.00;100570.19;10437208;28;20048;-77
2023/07/29 10:35:06;;;;;;;1.70;1.23;;;;;;;27.50;95.72;100570.72;10425494;28;20029;-76
2023/07/29 10:40:08;;;;;;;1.85;1.15;;;;;;;26.07;100.00;100573.25;10435133;28;20075;-76
2023/07/29 10:45:21;;;;;;;1.67;1.10;;;;;;;26.16;100.00;100558.78;10421331;28;20041;-77
2023/07/29 10:50:22;;;;;;;8.30;1.23;;;;;;;27.06;100.00;100562.94;10453648;28;20033;-75
2023/07/29 10:55:38;;;;;;;3.93;1.77;;;;;;;25.77;100.00;100554.22;10490617;28;20033;-76
2023/07/29 11:00:41;;;;;;;2.58;1.67;;;;;;;24.47;100.00;100527.88;10461493;28;20037;-76
2023/07/29 11:05:48;;;;;;;3.10;1.30;;;;;;;23.96;100.00;100521.44;10434749;28;20451;-75
2023/07/29 11:10:59;;;;;;;4.30;1.48;;;;;;;25.97;100.00;100536.81;10436399;28;20041;-75
2023/07/29 11:16:01;;;;;;;9.35;5.13;;;;;;;26.09;100.00;100532.06;10454885;28;20037;-76
2023/07/29 11:21:03;;;;;;;1.92;1.20;;;;;;;25.66;100.00;100535.66;10462283;28;20041;-76
2023/07/29 11:26:04;;;;;;;6.60;2.78;;;;;;;27.05;100.00;100538.78;10446527;28;20045;-77
2023/07/29 11:31:04;;;;;;;2.90;1.15;;;;;;;25.24;100.00;100543.59;10444167;28;20046;-76
2023/07/29 11:36:05;;;;;;;8.70;2.63;;;;;;;25.37;100.00;100534.41;10436302;28;20108;-76
2023/07/29 11:41:07;;;;;;;11.20;3.53;;;;;;;26.31;100.00;100534.28;10436448;28;20041;-76
2023/07/29 11:46:08;;;;;;;3.63;1.48;;;;;;;26.47;100.00;100521.41;10435766;28;20037;-77
2023/07/29 11:51:08;;;;;;;5.77;1.47;;;;;;;26.38;100.00;100527.00;10418416;28;20103;-77
2023/07/29 11:56:09;;;;;;;3.43;1.90;;;;;;;26.33;100.00;100520.84;10436007;28;20055;-76
2023/07/29 12:01:09;;;;;;;5.33;2.73;;;;;;;27.45;94.82;100532.31;10442047;28;20127;-77
2023/07/29 12:06:10;;;;;;;4.37;2.63;;;;;;;25.90;100.00;100522.66;10420450;28;20068;-77
2023/07/29 12:11:10;;;;;;;2.87;1.57;;;;;;;25.29;100.00;100514.91;10438862;28;20161;-76
2023/07/29 12:16:17;;;;;;;8.07;2.10;;;;;;;24.38;100.00;100503.94;10442115;28;20068;-77
2023/07/29 12:21:18;;;;;;;1.75;1.10;;;;;;;23.59;100.00;100493.44;10439434;28;20044;-76
2023/07/29 12:26:19;;;;;;;6.82;4.25;;;;;;;22.62;100.00;100495.28;10418788;28;20094;-76
2023/07/29 12:31:20;;;;;;;;;;;;;;;22.22;100.00;100490.19;10442513;28;20045;-77
2023/07/29 12:36:21;;;;;;;4.13;2.00;;;;;;;21.51;100.00;100489.63;10439820;28;19926;-76
2023/07/29 12:41:21;;;;;;;4.27;2.13;;;;;;;20.95;100.00;100503.06;10422155;28;20045;-76
2023/07/29 12:46:22;;;;;;;2.13;1.00;;;;;;;20.52;100.00;100497.72;10415948;28;20064;-76
2023/07/29 12:51:22;;;;;;;5.00;1.93;;;;;;;20.02;100.00;100510.00;10443973;28;20481;-76
2023/07/29 12:56:23;;;;;;;3.05;1.60;;;;;;;19.73;100.00;100526.69;10429334;28;20051;-75
2023/07/29 13:01:24;;;;;;;2.93;1.60;;;;;;;19.52;100.00;100521.31;10470076;28;20128;-75
2023/07/29 13:06:24;;;;;;;5.07;1.80;;;;;;;19.24;100.00;100530.84;10466822;28;20029;-75
2023/07/29 13:11:26;;;;;;;6.45;1.75;;;;;;;19.11;100.00;100564.38;10512538;28;20448;-77
2023/07/29 13:16:27;;;;;;;6.90;2.47;;;;;;;19.06;100.00;100585.53;10470211;28;20045;-76
2023/07/29 13:21:28;;;;;;;4.90;1.83;;;;;;;19.55;100.00;100605.34;10432892;28;20033;-76
2023/07/29 13:26:28;;;;;;;3.83;3.10;;;;;;;20.56;100.00;100576.59;10430326;28;20041;-77
2023/07/29 13:31:30;;;;;;;3.10;1.63;;;;;;;20.96;100.00;100554.47;10440909;28;20040;-77
2023/07/29 13:36:31;;;;;;;8.82;1.70;;;;;;;20.81;100.00;100512.81;10442747;28;20048;-77
2023/07/29 13:41:31;;;;;;;4.53;1.63;;;;;;;20.66;100.00;100495.97;10439165;28;20372;-76
2023/07/29 13:46:32;;;;;;;2.20;1.27;;;;;;;20.36;100.00;100521.63;10437618;28;20068;-77
2023/07/29 13:51:32;;;;;;;2.15;1.48;;;;;;;20.24;100.00;100509.19;10442528;28;20180;-77
2023/07/29 13:56:33;;;;;;;3.83;1.35;;;;;;;19.72;100.00;100536.44;10418386;28;20491;-77
2023/07/29 14:01:33;;;;;;;5.38;2.58;;;;;;;19.21;100.00;100570.63;10438430;28;20037;-76
2023/07/29 14:06:34;;;;;;;9.80;5.82;;;;;;;18.62;100.00;100600.16;10441681;28;20041;-79
2023/07/29 14:11:34;;;;;;;10.02;6.45;;;;;;;17.95;100.00;100617.00;10437265;28;20565;-76
2023/07/29 14:16:35;;;;;;;4.78;1.95;;;;;;;17.38;100.00;100609.13;10436798;28;20048;-75
2023/07/29 14:21:35;;;;;;;5.72;2.38;;;;;;;19.18;100.00;100626.31;10438322;28;20140;-76
2023/07/29 14:26:36;;;;;;;4.15;1.63;;;;;;;21.68;100.00;100542.84;10417231;28;20083;-75
2023/07/29 14:31:36;;;;;;;6.57;2.35;;;;;;;23.37;100.00;100498.13;10441131;28;20120;-75
2023/07/29 14:36:37;;;;;;;2.23;1.10;;;;;;;23.74;100.00;100507.50;10437958;28;20120;-75
2023/07/29 14:41:37;;;;;;;12.70;2.53;;;;;;;24.89;100.00;100503.16;10435602;28;20128;-75
2023/07/29 14:46:38;;;;;;;3.20;1.93;;;;;;;25.26;100.00;100515.88;10438800;28;20112;-75
2023/07/29 14:51:38;;;;;;;3.73;1.63;;;;;;;24.49;100.00;100515.38;10436919;28;20476;-76
2023/07/29 14:56:39;;;;;;;8.07;1.83;;;;;;;24.95;100.00;100524.47;10437184;28;20537;-77
2023/07/29 15:01:39;;;;;;;6.13;1.87;;;;;;;24.90;100.00;100532.56;10426242;28;20133;-76
2023/07/29 15:06:40;;;;;;;5.67;2.00;;;;;;;24.84;100.00;100523.78;10448361;28;20033;-77
2023/07/29 15:11:41;;;;;;;2.47;1.50;;;;;;;24.79;100.00;100521.16;10431861;28;20131;-77
2023/07/29 15:16:41;;;;;;;2.80;1.97;;;;;;;24.38;100.00;100512.88;10466794;28;20136;-76
2023/07/29 15:21:42;;;;;;;6.07;2.07;;;;;;;22.76;100.00;100545.81;10475071;28;20051;-76
2023/07/29 15:26:42;;;;;;;3.27;2.00;;;;;;;22.50;100.00;100576.22;10453132;28;20041;-76
2023/07/29 15:31:43;;;;;;;3.53;2.43;;;;;;;22.14;100.00;100565.75;10439337;28;20063;-76
2023/07/29 15:36:43;;;;;;;3.23;1.77;;;;;;;22.42;100.00;100554.03;10443931;28;20041;-77
2023/07/29 15:41:44;;;;;;;5.03;1.77;;;;;;;22.39;100.00;100556.72;10432205;28;20039;-78
2023/07/29 15:46:45;;;;;;;4.47;2.33;;;;;;;21.78;100.00;100561.44;10433475;28;20116;-75
2023/07/29 15:51:45;;;;;;;3.17;2.20;;;;;;;21.61;100.00;100564.16;10440009;28;20048;-76
2023/07/29 15:56:46;;;;;;;3.00;1.53;;;;;;;22.02;100.00;100546.25;10420970;28;20523;-76
2023/07/29 16:01:46;;;;;;;3.93;2.07;;;;;;;22.03;100.00;100553.34;10429171;28;20045;-77
2023/07/29 16:06:47;;;;;;;2.90;1.90;;;;;;;21.51;100.00;100529.56;10427117;28;20124;-76
2023/07/29 16:11:48;;;;;;;3.80;1.70;;;;;;;21.01;100.00;100536.75;10435357;28;20041;-76
2023/07/29 16:16:48;;;;;;;2.83;1.77;;;;;;;20.79;100.00;100539.41;10440038;28;20066;-75
2023/07/29 16:21:49;;;;;;;4.03;2.27;;;;;;;20.22;100.00;100569.41;10424089;28;20029;-76
2023/07/29 16:26:50;;;;;;;3.33;2.08;;;;;;;19.46;100.00;100576.09;10441063;28;20146;-76
2023/07/29 16:31:50;;;;;;;3.10;2.20;;;;;;;19.09;100.00;100605.91;10426652;28;20064;-76
2023/07/29 16:36:51;;;;;;;5.07;3.00;;;;;;;18.98;100.00;100619.06;10409885;28;20208;-75
2023/07/29 16:41:51;;;;;;;3.83;3.22;;;;;;;19.00;100.00;100617.31;10438167;28;20125;-75
2023/07/29 16:46:52;;;;;;;4.13;3.10;;;;;;;18.96;100.00;100619.91;10445105;28;20068;-75
2023/07/29 16:51:52;;;;;;;8.32;3.25;;;;;;;18.92;100.00;100600.41;10441812;28;20390;-76
2023/07/29 16:56:52;;;;;;;7.53;3.78;;;;;;;18.80;100.00;100601.19;10442559;28;20055;-77
2023/07/29 17:01:53;;;;;;;5.28;3.35;;;;;;;18.68;100.00;100583.41;10438680;28;20413;-75
2023/07/29 17:06:54;;;;;;;5.40;3.08;;;;;;;18.79;100.00;100575.56;10480060;28;20131;-75
2023/07/29 17:11:59;;;;;;;5.70;2.88;;;;;;;19.20;100.00;100564.44;10476438;28;20163;-75
2023/07/29 17:16:59;;;;;;;7.93;3.03;;;;;;;19.30;100.00;100546.81;10460028;28;20044;-75
2023/07/29 17:22:00;;;;;;;5.88;2.90;;;;;;;19.07;100.00;100552.84;10441623;28;20029;-75
2023/07/29 17:27:00;;;;;;;4.10;2.60;;;;;;;18.85;100.00;100580.03;10423724;28;20042;-75
2023/07/29 17:32:01;;;;;;;5.93;3.33;;;;;;;18.83;100.00;100598.56;10422727;28;20036;-76
2023/07/29 17:37:01;;;;;;;5.47;2.42;;;;;;;18.64;100.00;100592.19;10441093;28;20129;-77
2023/07/29 17:42:02;;;;;;;3.70;2.08;;;;;;;18.55;100.00;100594.75;10424121;28;20446;-76
2023/07/29 17:47:03;;;;;;;7.18;3.08;;;;;;;18.63;100.00;100587.75;10440509;28;20041;-76
2023/07/29 17:52:06;;;;;;;5.50;2.20;;;;;;;18.69;100.00;100581.66;10440448;28;20127;-76
2023/07/29 17:57:06;;;;;;;5.13;2.40;;;;;;;18.60;100.00;100582.44;10423991;28;20043;-76
2023/07/29 18:02:07;;;;;;;5.60;2.88;;;;;;;18.57;100.00;100595.66;10421835;28;20045;-75
2023/07/29 18:07:07;;;;;;;7.93;3.72;;;;;;;18.40;100.00;100604.31;10440966;28;20164;-78
2023/07/29 18:12:08;;;;;;;6.32;3.42;;;;;;;18.14;100.00;100606.66;10442292;28;20037;-74
2023/07/29 18:17:08;;;;;;;4.30;2.47;;;;;;;17.90;100.00;100606.31;10440761;28;20398;-74
2023/07/29 18:22:09;;;;;;;12.13;3.30;;;;;;;17.74;100.00;100617.56;10439329;28;20124;-75
2023/07/29 18:27:10;;;;;;;6.18;3.92;;;;;;;17.56;100.00;100621.72;10435642;28;20404;-75
2023/07/29 18:32:11;;;;;;;10.87;4.13;;;;;;;17.42;100.00;100625.91;10429473;28;20509;-75
2023/07/29 18:37:11;;;;;;;8.98;4.13;;;;;;;17.35;100.00;100638.16;10434235;28;20278;-74
2023/07/29 18:42:13;;;;;;;4.55;2.88;;;;;;;17.28;100.00;100644.22;10437810;28;20033;-75
2023/07/29 18:47:13;;;;;;;6.57;3.77;;;;;;;17.18;100.00;100645.81;10438831;28;20107;-74
2023/07/29 18:52:14;;;;;;;9.77;3.92;;;;;;;17.05;100.00;100650.00;10438026;28;20044;-74
2023/07/29 18:57:14;;;;;;;10.52;5.60;;;;;;;16.93;100.00;100650.63;10438118;28;20469;-74
2023/07/29 19:02:17;;;;;;;10.88;6.22;;;;;;;16.84;100.00;100651.38;10439984;28;20535;-75
2023/07/29 19:07:19;;;;;;;12.52;5.30;;;;;;;16.76;100.00;100671.47;10436482;28;20069;-74
2023/07/29 19:12:19;;;;;;;7.80;4.50;;;;;;;16.67;100.00;100658.97;10437868;28;20120;-74
2023/07/29 19:17:20;;;;;;;6.57;4.55;;;;;;;16.63;100.00;100666.81;10437105;28;20051;-75
2023/07/29 19:22:20;;;;;;;9.07;6.28;;;;;;;16.53;100.00;100674.56;10420506;28;20041;-75
2023/07/29 19:27:21;;;;;;;10.77;5.93;;;;;;;16.42;100.00;100669.03;10436786;28;20394;-75
2023/07/29 19:32:22;;;;;;;7.90;5.05;;;;;;;16.31;100.00;100681.13;10435749;28;20048;-75
2023/07/29 19:37:24;;;;;;;11.57;4.70;;;;;;;16.25;100.00;100670.44;10439171;28;20045;-75
2023/07/29 19:42:25;;;;;;;8.02;4.82;;;;;;;16.17;100.00;100672.94;10421945;28;20051;-75
2023/07/29 19:47:26;;;;;;;10.48;5.55;;;;;;;16.13;100.00;100677.25;10444119;28;20039;-74
2023/07/29 19:52:26;;;;;;;9.77;6.60;;;;;;;16.07;100.00;100673.59;10444470;28;20063;-75
2023/07/29 19:57:27;;;;;;;12.57;6.25;;;;;;;15.98;100.00;100691.00;10443881;28;20051;-73
2023/07/29 20:02:31;;;;;;;13.50;7.15;;;;;;;15.90;100.00;100687.31;10459691;28;20083;-74
2023/07/29 20:07:32;;;;;;;10.63;6.85;;;;;;;15.78;100.00;100685.22;10444137;28;20392;-79
2023/07/29 20:12:32;;;;;;;13.45;6.53;;;;;;;15.62;100.00;100694.53;10463522;28;20040;-74
2023/07/29 20:17:34;;;;;;;8.32;4.95;;;;;;;15.47;100.00;100702.94;10464085;28;20056;-74
2023/07/29 20:22:35;;;;;;;;;;;;;;;15.26;100.00;100698.91;10483005;28;20447;-74
2023/07/29 20:27:35;;;;;;;11.43;4.43;;;;;;;15.02;100.00;100691.28;10467907;28;19974;-74
2023/07/29 20:32:36;;;;;;;9.90;5.85;;;;;;;14.88;100.00;100692.66;10457754;28;20041;-74
2023/07/29 20:37:37;;;;;;;8.20;5.13;;;;;;;14.74;100.00;100689.63;10458293;28;20040;-74
2023/07/29 20:42:37;;;;;;;9.93;5.70;;;;;;;14.62;100.00;100695.41;10463842;28;20041;-74
2023/07/29 20:47:38;;;;;;;12.88;4.75;;;;;;;14.43;100.00;100693.97;10460173;28;20095;-75
2023/07/29 20:52:38;;;;;;;11.93;4.80;;;;;;;14.32;100.00;100694.56;10455685;28;20132;-74
2023/07/29 20:57:39;;;;;;;8.73;4.35;;;;;;;14.14;100.00;100692.28;10442127;28;20071;-74
2023/07/29 21:02:39;;;;;;;15.05;6.30;;;;;;;13.90;100.00;100693.31;10463247;28;20124;-74
2023/07/29 21:07:40;;;;;;;15.95;6.15;;;;;;;13.76;100.00;100700.75;10417303;28;20036;-75
2023/07/29 21:12:41;;;;;;;11.63;5.78;;;;;;;13.72;100.00;100703.25;10451298;28;20127;-73
2023/07/29 21:17:41;;;;;;;10.57;5.00;;;;;;;13.55;100.00;100695.72;10450419;28;20032;-73
2023/07/29 21:22:43;;;;;;;15.27;7.63;;;;;;;13.43;100.00;100688.28;10445018;28;20119;-73
2023/07/29 21:27:44;;;;;;;12.93;6.10;;;;;;;13.36;100.00;100689.81;10431519;28;20045;-73
2023/07/29 21:32:46;;;;;;;15.10;6.27;;;;;;;13.32;100.00;100695.81;10435425;28;20071;-73
2023/07/29 21:37:48;;;;;;;;;;;;;;;13.22;100.00;100691.97;10427928;28;20056;-73
2023/07/29 21:42:52;;;;;;;15.73;8.20;;;;;;;13.12;100.00;100695.09;10484373;28;19928;-73
2023/07/29 21:47:55;;;;;;;12.30;5.63;;;;;;;13.00;100.00;100703.47;10488733;28;20535;-74
2023/07/29 21:53:00;;;;;;;14.40;6.07;;;;;;;12.85;100.00;100706.44;10460097;28;20043;-73
2023/07/29 21:58:06;;;;;;;12.07;7.00;;;;;;;12.85;100.00;100701.19;10434275;28;20045;-73
2023/07/29 22:03:08;;;;;;;10.45;5.40;;;;;;;12.82;100.00;100710.69;10426292;28;20056;-73
2023/07/29 22:08:11;;;;;;;12.43;7.10;;;;;;;12.74;100.00;100721.81;10474618;28;20040;-73
2023/07/29 22:13:12;;;;;;;14.73;7.80;;;;;;;12.68;100.00;100731.19;10476817;28;20045;-73
2023/07/29 22:18:13;;;;;;;9.95;5.93;;;;;;;12.61;100.00;100728.34;10475848;28;20044;-73
2023/07/29 22:23:19;;;;;;;22.73;9.95;;;;;;;12.55;100.00;100735.97;10434861;28;20037;-73
2023/07/29 22:28:19;;;;;;;11.85;5.68;;;;;;;12.49;100.00;100746.25;10418870;28;20067;-73
2023/07/29 22:33:21;;;;;;;11.77;7.05;;;;;;;12.36;100.00;100754.50;10431756;28;20087;-73
2023/07/29 22:38:22;;;;;;;13.35;6.65;;;;;;;12.21;100.00;100755.69;10443533;28;20531;-73
2023/07/29 22:43:23;;;;;;;14.48;7.05;;;;;;;12.12;100.00;100761.50;10470942;28;20066;-73